sensor_id;sensor_type;location;lat;lon;timestamp;P1;durP1;ratioP1;P2;durP2;ratioP2
49764;SDS011;35657;51.204;-4.130;2023-07-08T00:00:20;12.77;;;8.82;;
49764;SDS011;35657;51.204;-4.130;2023-07-08T00:02:47;6.13;;;3.85;;
49764;SDS011;35657;51.204;-4.130;2023-07-08T00:05:13;8.10;;;4.60;;
49764;SDS011;35657;51.204;-4.130;2023-07-08T00:07:41;6.00;;;4.35;;
49764;SDS011;35657;51.204;-4.130;2023-07-08T00:10:17;9.10;;;4.15;;
49764;SDS011;35657;51.204;-4.130;2023-07-08T00:12:45;7.00;;;4.38;;
49764;SDS011;35657;51.204;-4.130;2023-07-08T00:15:13;8.48;;;4.60;;
49764;SDS011;35657;51.204;-4.130;2023-07-08T00:17:40;10.73;;;4.82;;
49764;SDS011;35657;51.204;-4.130;2023-07-08T00:20:22;9.43;;;4.47;;
49764;SDS011;35657;51.204;-4.130;2023-07-08T00:23:09;9.30;;;4.85;;
49764;SDS011;35657;51.204;-4.130;2023-07-08T00:25:35;10.93;;;4.07;;
49764;SDS011;35657;51.204;-4.130;2023-07-08T00:28:00;9.60;;;3.97;;
49764;SDS011;35657;51.204;-4.130;2023-07-08T00:30:27;7.35;;;4.50;;
49764;SDS011;35657;51.204;-4.130;2023-07-08T00:32:55;4.97;;;3.90;;
49764;SDS011;35657;51.204;-4.130;2023-07-08T00:37:53;8.15;;;4.18;;
49764;SDS011;35657;51.204;-4.130;2023-07-08T00:40:26;7.15;;;4.30;;
49764;SDS011;35657;51.204;-4.130;2023-07-08T00:42:54;8.00;;;4.47;;
49764;SDS011;35657;51.204;-4.130;2023-07-08T00:50:41;7.03;;;3.90;;
49764;SDS011;35657;51.204;-4.130;2023-07-08T00:58:38;8.02;;;3.85;;
49764;SDS011;35657;51.204;-4.130;2023-07-08T01:01:11;7.88;;;4.03;;
49764;SDS011;35657;51.204;-4.130;2023-07-08T01:03:48;6.47;;;3.45;;
49764;SDS011;35657;51.204;-4.130;2023-07-08T01:06:36;8.02;;;4.50;;
49764;SDS011;35657;51.204;-4.130;2023-07-08T01:09:05;8.38;;;3.92;;
49764;SDS011;35657;51.204;-4.130;2023-07-08T01:11:33;7.63;;;3.78;;
49764;SDS011;35657;51.204;-4.130;2023-07-08T01:14:02;7.18;;;4.20;;
49764;SDS011;35657;51.204;-4.130;2023-07-08T01:16:30;5.80;;;3.70;;
49764;SDS011;35657;51.204;-4.130;2023-07-08T01:18:59;8.32;;;4.20;;
49764;SDS011;35657;51.204;-4.130;2023-07-08T01:21:33;5.78;;;3.70;;
49764;SDS011;35657;51.204;-4.130;2023-07-08T01:24:02;10.30;;;4.05;;
49764;SDS011;35657;51.204;-4.130;2023-07-08T01:26:31;6.82;;;4.00;;
49764;SDS011;35657;51.204;-4.130;2023-07-08T01:29:00;6.95;;;3.47;;
49764;SDS011;35657;51.204;-4.130;2023-07-08T01:31:27;9.30;;;3.95;;
49764;SDS011;35657;51.204;-4.130;2023-07-08T01:33:53;8.20;;;3.97;;
49764;SDS011;35657;51.204;-4.130;2023-07-08T01:36:20;10.38;;;4.72;;
49764;SDS011;35657;51.204;-4.130;2023-07-08T01:38:46;7.00;;;3.75;;
49764;SDS011;35657;51.204;-4.130;2023-07-08T01:41:13;8.95;;;4.10;;
49764;SDS011;35657;51.204;-4.130;2023-07-08T01:43:40;5.90;;;3.67;;
49764;SDS011;35657;51.204;-4.130;2023-07-08T01:46:09;8.50;;;4.03;;
49764;SDS011;35657;51.204;-4.130;2023-07-08T01:48:41;5.75;;;3.42;;
49764;SDS011;35657;51.204;-4.130;2023-07-08T01:51:11;11.75;;;4.22;;
49764;SDS011;35657;51.204;-4.130;2023-07-08T01:53:39;7.60;;;3.85;;
49764;SDS011;35657;51.204;-4.130;2023-07-08T01:56:07;6.38;;;3.72;;
49764;SDS011;35657;51.204;-4.130;2023-07-08T01:58:33;10.18;;;3.67;;
49764;SDS011;35657;51.204;-4.130;2023-07-08T02:00:59;8.20;;;3.55;;
49764;SDS011;35657;51.204;-4.130;2023-07-08T02:03:26;9.73;;;3.75;;
49764;SDS011;35657;51.204;-4.130;2023-07-08T02:05:52;6.15;;;3.15;;
49764;SDS011;35657;51.204;-4.130;2023-07-08T02:08:18;10.15;;;3.97;;
49764;SDS011;35657;51.204;-4.130;2023-07-08T02:10:49;5.88;;;3.50;;
49764;SDS011;35657;51.204;-4.130;2023-07-08T02:13:17;8.00;;;3.65;;
49764;SDS011;35657;51.204;-4.130;2023-07-08T02:15:43;10.43;;;4.18;;
49764;SDS011;35657;51.204;-4.130;2023-07-08T02:18:08;8.57;;;3.60;;
49764;SDS011;35657;51.204;-4.130;2023-07-08T02:20:34;10.88;;;4.55;;
49764;SDS011;35657;51.204;-4.130;2023-07-08T02:23:00;7.97;;;3.83;;
49764;SDS011;35657;51.204;-4.130;2023-07-08T02:25:26;12.18;;;3.83;;
49764;SDS011;35657;51.204;-4.130;2023-07-08T02:27:52;8.43;;;3.90;;
49764;SDS011;35657;51.204;-4.130;2023-07-08T02:30:22;5.28;;;3.17;;
49764;SDS011;35657;51.204;-4.130;2023-07-08T02:32:48;9.48;;;4.28;;
49764;SDS011;35657;51.204;-4.130;2023-07-08T02:35:22;7.47;;;3.88;;
49764;SDS011;35657;51.204;-4.130;2023-07-08T02:37:49;6.80;;;4.20;;
49764;SDS011;35657;51.204;-4.130;2023-07-08T02:40:15;5.75;;;3.45;;
49764;SDS011;35657;51.204;-4.130;2023-07-08T02:42:41;8.57;;;4.38;;
49764;SDS011;35657;51.204;-4.130;2023-07-08T02:45:07;9.85;;;4.15;;
49764;SDS011;35657;51.204;-4.130;2023-07-08T02:47:33;8.05;;;3.38;;
49764;SDS011;35657;51.204;-4.130;2023-07-08T02:49:58;6.90;;;3.53;;
49764;SDS011;35657;51.204;-4.130;2023-07-08T02:52:24;9.30;;;3.95;;
49764;SDS011;35657;51.204;-4.130;2023-07-08T02:54:50;7.50;;;3.85;;
49764;SDS011;35657;51.204;-4.130;2023-07-08T02:57:15;9.10;;;3.85;;
49764;SDS011;35657;51.204;-4.130;2023-07-08T02:59:41;9.40;;;4.25;;
49764;SDS011;35657;51.204;-4.130;2023-07-08T03:02:07;5.63;;;3.47;;
49764;SDS011;35657;51.204;-4.130;2023-07-08T03:04:33;5.13;;;2.97;;
49764;SDS011;35657;51.204;-4.130;2023-07-08T03:07:00;10.15;;;3.50;;
49764;SDS011;35657;51.204;-4.130;2023-07-08T03:09:26;9.18;;;3.55;;
49764;SDS011;35657;51.204;-4.130;2023-07-08T03:11:52;7.70;;;3.28;;
49764;SDS011;35657;51.204;-4.130;2023-07-08T03:14:18;4.38;;;2.72;;
49764;SDS011;35657;51.204;-4.130;2023-07-08T03:16:43;4.38;;;3.10;;
49764;SDS011;35657;51.204;-4.130;2023-07-08T03:19:10;6.00;;;3.10;;
49764;SDS011;35657;51.204;-4.130;2023-07-08T03:21:39;8.23;;;3.55;;
49764;SDS011;35657;51.204;-4.130;2023-07-08T03:24:08;6.03;;;2.70;;
49764;SDS011;35657;51.204;-4.130;2023-07-08T03:26:36;5.15;;;2.95;;
49764;SDS011;35657;51.204;-4.130;2023-07-08T03:29:02;5.25;;;3.00;;
49764;SDS011;35657;51.204;-4.130;2023-07-08T03:31:27;6.95;;;3.08;;
49764;SDS011;35657;51.204;-4.130;2023-07-08T03:33:53;7.85;;;3.38;;
49764;SDS011;35657;51.204;-4.130;2023-07-08T03:36:19;4.05;;;2.30;;
49764;SDS011;35657;51.204;-4.130;2023-07-08T03:38:51;7.53;;;2.58;;
49764;SDS011;35657;51.204;-4.130;2023-07-08T03:41:19;3.72;;;2.63;;
49764;SDS011;35657;51.204;-4.130;2023-07-08T03:43:45;5.45;;;3.05;;
49764;SDS011;35657;51.204;-4.130;2023-07-08T03:46:11;9.88;;;3.47;;
49764;SDS011;35657;51.204;-4.130;2023-07-08T03:48:37;8.32;;;2.88;;
49764;SDS011;35657;51.204;-4.130;2023-07-08T03:51:04;3.67;;;2.20;;
49764;SDS011;35657;51.204;-4.130;2023-07-08T03:53:35;5.57;;;2.78;;
49764;SDS011;35657;51.204;-4.130;2023-07-08T03:56:00;5.70;;;2.92;;
49764;SDS011;35657;51.204;-4.130;2023-07-08T03:58:26;9.77;;;3.85;;
49764;SDS011;35657;51.204;-4.130;2023-07-08T04:00:52;5.70;;;2.78;;
49764;SDS011;35657;51.204;-4.130;2023-07-08T04:03:17;6.30;;;2.70;;
49764;SDS011;35657;51.204;-4.130;2023-07-08T04:05:44;4.63;;;2.63;;
49764;SDS011;35657;51.204;-4.130;2023-07-08T04:08:09;4.90;;;2.60;;
49764;SDS011;35657;51.204;-4.130;2023-07-08T04:10:35;2.90;;;2.10;;
49764;SDS011;35657;51.204;-4.130;2023-07-08T04:13:01;5.72;;;2.38;;
49764;SDS011;35657;51.204;-4.130;2023-07-08T04:15:26;9.73;;;2.97;;
49764;SDS011;35657;51.204;-4.130;2023-07-08T04:17:53;6.50;;;2.30;;
49764;SDS011;35657;51.204;-4.130;2023-07-08T04:20:20;6.65;;;3.72;;
49764;SDS011;35657;51.204;-4.130;2023-07-08T04:22:46;4.93;;;2.80;;
49764;SDS011;35657;51.204;-4.130;2023-07-08T04:25:12;3.88;;;2.33;;
49764;SDS011;35657;51.204;-4.130;2023-07-08T04:27:39;7.20;;;2.60;;
49764;SDS011;35657;51.204;-4.130;2023-07-08T04:30:05;5.20;;;2.47;;
49764;SDS011;35657;51.204;-4.130;2023-07-08T04:32:32;7.57;;;2.63;;
49764;SDS011;35657;51.204;-4.130;2023-07-08T04:34:58;6.82;;;2.45;;
49764;SDS011;35657;51.204;-4.130;2023-07-08T04:37:23;6.28;;;2.70;;
49764;SDS011;35657;51.204;-4.130;2023-07-08T04:39:49;6.15;;;2.80;;
49764;SDS011;35657;51.204;-4.130;2023-07-08T04:42:15;6.18;;;2.40;;
49764;SDS011;35657;51.204;-4.130;2023-07-08T04:44:42;10.25;;;2.92;;
49764;SDS011;35657;51.204;-4.130;2023-07-08T04:47:09;4.50;;;2.22;;
49764;SDS011;35657;51.204;-4.130;2023-07-08T04:49:38;7.22;;;2.53;;
49764;SDS011;35657;51.204;-4.130;2023-07-08T04:52:06;11.85;;;3.40;;
49764;SDS011;35657;51.204;-4.130;2023-07-08T04:54:31;8.18;;;2.50;;
49764;SDS011;35657;51.204;-4.130;2023-07-08T04:56:57;10.18;;;2.53;;
49764;SDS011;35657;51.204;-4.130;2023-07-08T04:59:24;6.50;;;2.90;;
49764;SDS011;35657;51.204;-4.130;2023-07-08T05:01:50;7.10;;;2.42;;
49764;SDS011;35657;51.204;-4.130;2023-07-08T05:04:17;6.40;;;2.25;;
49764;SDS011;35657;51.204;-4.130;2023-07-08T05:06:44;4.65;;;2.83;;
49764;SDS011;35657;51.204;-4.130;2023-07-08T05:09:10;10.18;;;2.70;;
49764;SDS011;35657;51.204;-4.130;2023-07-08T05:11:36;9.55;;;3.25;;
49764;SDS011;35657;51.204;-4.130;2023-07-08T05:14:02;4.82;;;2.60;;
49764;SDS011;35657;51.204;-4.130;2023-07-08T05:16:29;6.82;;;2.53;;
49764;SDS011;35657;51.204;-4.130;2023-07-08T05:18:57;6.13;;;2.65;;
49764;SDS011;35657;51.204;-4.130;2023-07-08T05:21:23;7.15;;;2.33;;
49764;SDS011;35657;51.204;-4.130;2023-07-08T05:23:49;7.60;;;2.80;;
49764;SDS011;35657;51.204;-4.130;2023-07-08T05:26:15;6.22;;;3.17;;
49764;SDS011;35657;51.204;-4.130;2023-07-08T05:28:41;6.03;;;2.75;;
49764;SDS011;35657;51.204;-4.130;2023-07-08T05:31:07;9.60;;;2.70;;
49764;SDS011;35657;51.204;-4.130;2023-07-08T05:33:33;6.78;;;2.42;;
49764;SDS011;35657;51.204;-4.130;2023-07-08T05:35:59;6.00;;;2.65;;
49764;SDS011;35657;51.204;-4.130;2023-07-08T05:38:25;5.20;;;2.50;;
49764;SDS011;35657;51.204;-4.130;2023-07-08T05:40:55;8.43;;;2.35;;
49764;SDS011;35657;51.204;-4.130;2023-07-08T05:43:22;6.72;;;2.97;;
49764;SDS011;35657;51.204;-4.130;2023-07-08T05:45:47;5.80;;;2.50;;
49764;SDS011;35657;51.204;-4.130;2023-07-08T05:48:13;10.15;;;2.88;;
49764;SDS011;35657;51.204;-4.130;2023-07-08T05:50:39;9.02;;;2.45;;
49764;SDS011;35657;51.204;-4.130;2023-07-08T05:53:08;10.48;;;3.00;;
49764;SDS011;35657;51.204;-4.130;2023-07-08T05:55:35;8.60;;;2.72;;
49764;SDS011;35657;51.204;-4.130;2023-07-08T05:58:01;8.43;;;3.03;;
49764;SDS011;35657;51.204;-4.130;2023-07-08T06:00:27;8.32;;;3.00;;
49764;SDS011;35657;51.204;-4.130;2023-07-08T06:02:53;7.20;;;2.25;;
49764;SDS011;35657;51.204;-4.130;2023-07-08T06:05:19;7.65;;;2.38;;
49764;SDS011;35657;51.204;-4.130;2023-07-08T06:07:45;6.95;;;2.67;;
49764;SDS011;35657;51.204;-4.130;2023-07-08T06:10:10;4.88;;;2.17;;
49764;SDS011;35657;51.204;-4.130;2023-07-08T06:12:36;11.18;;;3.40;;
49764;SDS011;35657;51.204;-4.130;2023-07-08T06:15:02;8.65;;;3.13;;
49764;SDS011;35657;51.204;-4.130;2023-07-08T06:17:28;8.05;;;2.33;;
49764;SDS011;35657;51.204;-4.130;2023-07-08T06:19:53;7.18;;;2.63;;
49764;SDS011;35657;51.204;-4.130;2023-07-08T06:22:19;9.10;;;2.80;;
49764;SDS011;35657;51.204;-4.130;2023-07-08T06:24:45;7.35;;;2.75;;
49764;SDS011;35657;51.204;-4.130;2023-07-08T06:27:12;7.15;;;3.13;;
49764;SDS011;35657;51.204;-4.130;2023-07-08T06:29:38;7.38;;;3.10;;
49764;SDS011;35657;51.204;-4.130;2023-07-08T06:32:04;11.68;;;3.05;;
49764;SDS011;35657;51.204;-4.130;2023-07-08T06:34:31;8.98;;;2.90;;
49764;SDS011;35657;51.204;-4.130;2023-07-08T06:36:56;7.28;;;2.58;;
49764;SDS011;35657;51.204;-4.130;2023-07-08T06:39:22;7.45;;;2.55;;
49764;SDS011;35657;51.204;-4.130;2023-07-08T06:41:48;9.85;;;3.20;;
49764;SDS011;35657;51.204;-4.130;2023-07-08T06:44:14;9.50;;;2.22;;
49764;SDS011;35657;51.204;-4.130;2023-07-08T06:46:40;8.45;;;2.53;;
49764;SDS011;35657;51.204;-4.130;2023-07-08T06:49:06;8.93;;;2.78;;
49764;SDS011;35657;51.204;-4.130;2023-07-08T06:51:34;11.68;;;3.63;;
49764;SDS011;35657;51.204;-4.130;2023-07-08T06:54:00;8.27;;;2.80;;
49764;SDS011;35657;51.204;-4.130;2023-07-08T06:56:29;7.53;;;2.95;;
49764;SDS011;35657;51.204;-4.130;2023-07-08T06:58:56;7.45;;;2.20;;
49764;SDS011;35657;51.204;-4.130;2023-07-08T07:01:21;6.82;;;2.10;;
49764;SDS011;35657;51.204;-4.130;2023-07-08T07:03:47;5.93;;;2.38;;
49764;SDS011;35657;51.204;-4.130;2023-07-08T07:06:13;5.45;;;2.30;;
49764;SDS011;35657;51.204;-4.130;2023-07-08T07:08:39;9.40;;;1.90;;
49764;SDS011;35657;51.204;-4.130;2023-07-08T07:11:05;3.38;;;1.75;;
49764;SDS011;35657;51.204;-4.130;2023-07-08T07:13:31;10.43;;;3.35;;
49764;SDS011;35657;51.204;-4.130;2023-07-08T07:15:57;5.50;;;2.40;;
49764;SDS011;35657;51.204;-4.130;2023-07-08T07:18:23;12.85;;;3.00;;
49764;SDS011;35657;51.204;-4.130;2023-07-08T07:20:50;7.68;;;2.60;;
49764;SDS011;35657;51.204;-4.130;2023-07-08T07:23:18;6.88;;;2.30;;
49764;SDS011;35657;51.204;-4.130;2023-07-08T07:25:45;8.02;;;2.75;;
49764;SDS011;35657;51.204;-4.130;2023-07-08T07:28:12;9.40;;;3.22;;
49764;SDS011;35657;51.204;-4.130;2023-07-08T07:30:39;7.75;;;2.65;;
49764;SDS011;35657;51.204;-4.130;2023-07-08T07:33:04;4.93;;;2.45;;
49764;SDS011;35657;51.204;-4.130;2023-07-08T07:35:30;5.80;;;3.30;;
49764;SDS011;35657;51.204;-4.130;2023-07-08T07:37:56;11.60;;;2.80;;
49764;SDS011;35657;51.204;-4.130;2023-07-08T07:40:22;7.20;;;2.22;;
49764;SDS011;35657;51.204;-4.130;2023-07-08T07:42:48;5.47;;;2.53;;
49764;SDS011;35657;51.204;-4.130;2023-07-08T07:45:13;4.15;;;1.08;;
49764;SDS011;35657;51.204;-4.130;2023-07-08T07:47:39;7.93;;;2.00;;
49764;SDS011;35657;51.204;-4.130;2023-07-08T07:50:06;10.13;;;2.15;;
49764;SDS011;35657;51.204;-4.130;2023-07-08T07:52:33;8.27;;;1.92;;
49764;SDS011;35657;51.204;-4.130;2023-07-08T07:54:59;9.32;;;2.03;;
49764;SDS011;35657;51.204;-4.130;2023-07-08T07:57:25;5.05;;;1.58;;
49764;SDS011;35657;51.204;-4.130;2023-07-08T07:59:51;5.40;;;2.67;;
49764;SDS011;35657;51.204;-4.130;2023-07-08T08:02:17;4.78;;;1.48;;
49764;SDS011;35657;51.204;-4.130;2023-07-08T08:04:43;5.35;;;1.65;;
49764;SDS011;35657;51.204;-4.130;2023-07-08T08:07:09;11.25;;;2.17;;
49764;SDS011;35657;51.204;-4.130;2023-07-08T08:09:35;10.98;;;2.30;;
49764;SDS011;35657;51.204;-4.130;2023-07-08T08:12:01;5.57;;;1.35;;
49764;SDS011;35657;51.204;-4.130;2023-07-08T08:14:28;12.60;;;2.35;;
49764;SDS011;35657;51.204;-4.130;2023-07-08T08:16:54;8.07;;;1.90;;
49764;SDS011;35657;51.204;-4.130;2023-07-08T08:19:20;13.70;;;1.90;;
49764;SDS011;35657;51.204;-4.130;2023-07-08T08:21:45;7.15;;;1.63;;
49764;SDS011;35657;51.204;-4.130;2023-07-08T08:24:11;12.82;;;1.80;;
49764;SDS011;35657;51.204;-4.130;2023-07-08T08:26:37;5.95;;;1.90;;
49764;SDS011;35657;51.204;-4.130;2023-07-08T08:29:03;12.93;;;2.88;;
49764;SDS011;35657;51.204;-4.130;2023-07-08T08:31:28;7.47;;;2.22;;
49764;SDS011;35657;51.204;-4.130;2023-07-08T08:33:56;6.35;;;1.77;;
49764;SDS011;35657;51.204;-4.130;2023-07-08T08:36:22;10.50;;;1.85;;
49764;SDS011;35657;51.204;-4.130;2023-07-08T08:38:48;9.30;;;2.13;;
49764;SDS011;35657;51.204;-4.130;2023-07-08T08:41:15;6.60;;;1.48;;
49764;SDS011;35657;51.204;-4.130;2023-07-08T08:43:44;7.35;;;1.77;;
49764;SDS011;35657;51.204;-4.130;2023-07-08T08:48:59;5.07;;;1.75;;
49764;SDS011;35657;51.204;-4.130;2023-07-08T08:51:34;10.15;;;2.47;;
49764;SDS011;35657;51.204;-4.130;2023-07-08T08:54:00;7.85;;;1.70;;
49764;SDS011;35657;51.204;-4.130;2023-07-08T08:56:27;11.07;;;1.88;;
49764;SDS011;35657;51.204;-4.130;2023-07-08T09:01:45;10.75;;;2.00;;
49764;SDS011;35657;51.204;-4.130;2023-07-08T09:04:12;9.68;;;2.80;;
49764;SDS011;35657;51.204;-4.130;2023-07-08T09:06:45;11.15;;;2.55;;
49764;SDS011;35657;51.204;-4.130;2023-07-08T09:09:13;10.00;;;2.60;;
49764;SDS011;35657;51.204;-4.130;2023-07-08T09:14:35;14.00;;;2.20;;
49764;SDS011;35657;51.204;-4.130;2023-07-08T09:22:49;17.02;;;4.25;;
49764;SDS011;35657;51.204;-4.130;2023-07-08T09:25:22;12.55;;;4.10;;
49764;SDS011;35657;51.204;-4.130;2023-07-08T09:28:12;22.73;;;4.15;;
49764;SDS011;35657;51.204;-4.130;2023-07-08T09:30:39;14.95;;;3.33;;
49764;SDS011;35657;51.204;-4.130;2023-07-08T09:33:05;13.20;;;2.88;;
49764;SDS011;35657;51.204;-4.130;2023-07-08T09:35:40;11.02;;;2.47;;
49764;SDS011;35657;51.204;-4.130;2023-07-08T09:38:09;15.35;;;2.75;;
49764;SDS011;35657;51.204;-4.130;2023-07-08T09:40:39;11.20;;;2.63;;
49764;SDS011;35657;51.204;-4.130;2023-07-08T09:46:02;17.48;;;5.43;;
49764;SDS011;35657;51.204;-4.130;2023-07-08T09:48:29;13.10;;;3.58;;
49764;SDS011;35657;51.204;-4.130;2023-07-08T09:50:59;16.52;;;3.00;;
49764;SDS011;35657;51.204;-4.130;2023-07-08T09:53:25;9.63;;;2.13;;
49764;SDS011;35657;51.204;-4.130;2023-07-08T09:55:52;11.80;;;1.90;;
49764;SDS011;35657;51.204;-4.130;2023-07-08T09:58:21;10.35;;;2.75;;
49764;SDS011;35657;51.204;-4.130;2023-07-08T10:00:57;16.65;;;2.88;;
49764;SDS011;35657;51.204;-4.130;2023-07-08T10:03:26;10.43;;;2.03;;
49764;SDS011;35657;51.204;-4.130;2023-07-08T10:05:58;11.70;;;2.08;;
49764;SDS011;35657;51.204;-4.130;2023-07-08T10:08:36;13.18;;;1.85;;
49764;SDS011;35657;51.204;-4.130;2023-07-08T10:13:48;10.32;;;1.98;;
49764;SDS011;35657;51.204;-4.130;2023-07-08T10:16:29;5.88;;;1.45;;
49764;SDS011;35657;51.204;-4.130;2023-07-08T10:18:56;12.18;;;2.00;;
49764;SDS011;35657;51.204;-4.130;2023-07-08T10:21:31;13.55;;;2.88;;
49764;SDS011;35657;51.204;-4.130;2023-07-08T10:29:55;11.98;;;2.25;;
49764;SDS011;35657;51.204;-4.130;2023-07-08T10:45:40;15.60;;;4.78;;
49764;SDS011;35657;51.204;-4.130;2023-07-08T10:51:17;11.20;;;3.78;;
49764;SDS011;35657;51.204;-4.130;2023-07-08T11:07:40;13.10;;;2.05;;
49764;SDS011;35657;51.204;-4.130;2023-07-08T11:10:12;15.18;;;2.22;;
49764;SDS011;35657;51.204;-4.130;2023-07-08T11:12:47;7.88;;;1.63;;
49764;SDS011;35657;51.204;-4.130;2023-07-08T11:15:21;10.05;;;1.65;;
49764;SDS011;35657;51.204;-4.130;2023-07-08T11:17:57;7.97;;;1.75;;
49764;SDS011;35657;51.204;-4.130;2023-07-08T11:28:59;11.02;;;1.92;;
49764;SDS011;35657;51.204;-4.130;2023-07-08T11:31:27;11.85;;;2.75;;
49764;SDS011;35657;51.204;-4.130;2023-07-08T11:33:57;4.35;;;1.40;;
49764;SDS011;35657;51.204;-4.130;2023-07-08T11:36:25;12.70;;;1.48;;
49764;SDS011;35657;51.204;-4.130;2023-07-08T11:38:54;11.00;;;1.40;;
49764;SDS011;35657;51.204;-4.130;2023-07-08T11:41:22;10.18;;;2.22;;
49764;SDS011;35657;51.204;-4.130;2023-07-08T11:43:52;12.35;;;2.17;;
49764;SDS011;35657;51.204;-4.130;2023-07-08T11:46:28;15.77;;;4.13;;
49764;SDS011;35657;51.204;-4.130;2023-07-08T11:49:10;11.63;;;2.00;;
49764;SDS011;35657;51.204;-4.130;2023-07-08T11:51:38;12.70;;;2.25;;
49764;SDS011;35657;51.204;-4.130;2023-07-08T11:54:17;9.73;;;2.55;;
49764;SDS011;35657;51.204;-4.130;2023-07-08T11:57:05;11.35;;;2.10;;
49764;SDS011;35657;51.204;-4.130;2023-07-08T11:59:37;15.43;;;2.05;;
49764;SDS011;35657;51.204;-4.130;2023-07-08T12:02:15;9.60;;;1.90;;
49764;SDS011;35657;51.204;-4.130;2023-07-08T12:07:45;10.40;;;2.13;;
49764;SDS011;35657;51.204;-4.130;2023-07-08T12:10:16;11.85;;;2.03;;
49764;SDS011;35657;51.204;-4.130;2023-07-08T12:12:44;6.18;;;1.15;;
49764;SDS011;35657;51.204;-4.130;2023-07-08T12:15:15;7.45;;;1.80;;
49764;SDS011;35657;51.204;-4.130;2023-07-08T12:17:50;11.25;;;2.42;;
49764;SDS011;35657;51.204;-4.130;2023-07-08T12:20:21;13.40;;;2.10;;
49764;SDS011;35657;51.204;-4.130;2023-07-08T12:22:56;3.72;;;1.15;;
49764;SDS011;35657;51.204;-4.130;2023-07-08T12:25:22;6.97;;;1.83;;
49764;SDS011;35657;51.204;-4.130;2023-07-08T12:27:51;8.15;;;2.35;;
49764;SDS011;35657;51.204;-4.130;2023-07-08T12:30:17;8.65;;;2.95;;
49764;SDS011;35657;51.204;-4.130;2023-07-08T12:32:43;7.25;;;2.17;;
49764;SDS011;35657;51.204;-4.130;2023-07-08T12:35:17;8.48;;;2.25;;
49764;SDS011;35657;51.204;-4.130;2023-07-08T12:37:48;13.98;;;2.60;;
49764;SDS011;35657;51.204;-4.130;2023-07-08T12:40:15;5.30;;;1.83;;
49764;SDS011;35657;51.204;-4.130;2023-07-08T12:42:41;9.75;;;2.35;;
49764;SDS011;35657;51.204;-4.130;2023-07-08T12:45:12;12.73;;;2.38;;
49764;SDS011;35657;51.204;-4.130;2023-07-08T12:47:43;5.32;;;1.80;;
49764;SDS011;35657;51.204;-4.130;2023-07-08T12:50:10;12.77;;;2.75;;
49764;SDS011;35657;51.204;-4.130;2023-07-08T12:52:37;13.23;;;2.97;;
49764;SDS011;35657;51.204;-4.130;2023-07-08T12:55:04;10.90;;;2.25;;
49764;SDS011;35657;51.204;-4.130;2023-07-08T12:57:32;12.38;;;3.20;;
49764;SDS011;35657;51.204;-4.130;2023-07-08T12:59:59;12.00;;;2.35;;
49764;SDS011;35657;51.204;-4.130;2023-07-08T13:02:26;11.15;;;2.40;;
49764;SDS011;35657;51.204;-4.130;2023-07-08T13:04:56;16.35;;;3.20;;
49764;SDS011;35657;51.204;-4.130;2023-07-08T13:10:02;10.82;;;2.70;;
49764;SDS011;35657;51.204;-4.130;2023-07-08T13:12:32;16.75;;;3.00;;
49764;SDS011;35657;51.204;-4.130;2023-07-08T13:15:03;9.85;;;2.40;;
49764;SDS011;35657;51.204;-4.130;2023-07-08T13:17:34;14.60;;;2.00;;
49764;SDS011;35657;51.204;-4.130;2023-07-08T13:20:02;21.30;;;3.72;;
49764;SDS011;35657;51.204;-4.130;2023-07-08T13:22:28;11.45;;;2.45;;
49764;SDS011;35657;51.204;-4.130;2023-07-08T13:25:00;12.65;;;2.65;;
49764;SDS011;35657;51.204;-4.130;2023-07-08T13:27:27;15.90;;;2.85;;
49764;SDS011;35657;51.204;-4.130;2023-07-08T13:29:56;14.80;;;2.80;;
49764;SDS011;35657;51.204;-4.130;2023-07-08T13:32:44;10.35;;;2.63;;
49764;SDS011;35657;51.204;-4.130;2023-07-08T13:35:23;7.72;;;1.27;;
49764;SDS011;35657;51.204;-4.130;2023-07-08T13:37:58;4.57;;;1.42;;
49764;SDS011;35657;51.204;-4.130;2023-07-08T13:40:26;8.70;;;2.15;;
49764;SDS011;35657;51.204;-4.130;2023-07-08T13:42:53;3.15;;;2.05;;
49764;SDS011;35657;51.204;-4.130;2023-07-08T13:45:23;5.68;;;1.58;;
49764;SDS011;35657;51.204;-4.130;2023-07-08T13:51:02;7.90;;;1.58;;
49764;SDS011;35657;51.204;-4.130;2023-07-08T13:53:25;3.28;;;1.17;;
49764;SDS011;35657;51.204;-4.130;2023-07-08T13:56:14;7.25;;;1.63;;
49764;SDS011;35657;51.204;-4.130;2023-07-08T13:58:46;7.47;;;1.63;;
49764;SDS011;35657;51.204;-4.130;2023-07-08T14:01:19;6.85;;;1.88;;
49764;SDS011;35657;51.204;-4.130;2023-07-08T14:03:50;8.85;;;1.60;;
49764;SDS011;35657;51.204;-4.130;2023-07-08T14:06:19;6.32;;;1.60;;
49764;SDS011;35657;51.204;-4.130;2023-07-08T14:08:47;11.00;;;1.85;;
49764;SDS011;35657;51.204;-4.130;2023-07-08T14:11:13;5.43;;;1.85;;
49764;SDS011;35657;51.204;-4.130;2023-07-08T14:13:39;9.63;;;1.73;;
49764;SDS011;35657;51.204;-4.130;2023-07-08T14:16:10;8.90;;;2.03;;
49764;SDS011;35657;51.204;-4.130;2023-07-08T14:18:49;13.23;;;2.22;;
49764;SDS011;35657;51.204;-4.130;2023-07-08T14:21:15;6.60;;;1.55;;
49764;SDS011;35657;51.204;-4.130;2023-07-08T14:23:42;6.00;;;1.83;;
49764;SDS011;35657;51.204;-4.130;2023-07-08T14:26:11;7.75;;;1.63;;
49764;SDS011;35657;51.204;-4.130;2023-07-08T14:28:37;7.30;;;1.67;;
49764;SDS011;35657;51.204;-4.130;2023-07-08T14:31:07;6.40;;;1.50;;
49764;SDS011;35657;51.204;-4.130;2023-07-08T14:33:39;8.02;;;1.65;;
49764;SDS011;35657;51.204;-4.130;2023-07-08T14:36:11;8.88;;;1.45;;
49764;SDS011;35657;51.204;-4.130;2023-07-08T14:38:39;6.95;;;1.58;;
49764;SDS011;35657;51.204;-4.130;2023-07-08T14:41:05;7.30;;;1.90;;
49764;SDS011;35657;51.204;-4.130;2023-07-08T14:43:32;7.57;;;1.50;;
49764;SDS011;35657;51.204;-4.130;2023-07-08T14:45:59;12.02;;;2.13;;
49764;SDS011;35657;51.204;-4.130;2023-07-08T14:48:28;12.38;;;2.13;;
49764;SDS011;35657;51.204;-4.130;2023-07-08T14:50:55;5.85;;;1.48;;
49764;SDS011;35657;51.204;-4.130;2023-07-08T14:53:21;15.77;;;1.90;;
49764;SDS011;35657;51.204;-4.130;2023-07-08T14:55:47;16.98;;;2.35;;
49764;SDS011;35657;51.204;-4.130;2023-07-08T14:58:28;7.90;;;1.77;;
49764;SDS011;35657;51.204;-4.130;2023-07-08T15:00:57;8.07;;;2.22;;
49764;SDS011;35657;51.204;-4.130;2023-07-08T15:03:25;13.45;;;2.28;;
49764;SDS011;35657;51.204;-4.130;2023-07-08T15:05:51;10.63;;;2.55;;
49764;SDS011;35657;51.204;-4.130;2023-07-08T15:08:17;16.80;;;2.17;;
49764;SDS011;35657;51.204;-4.130;2023-07-08T15:10:50;6.13;;;2.13;;
49764;SDS011;35657;51.204;-4.130;2023-07-08T15:13:20;10.90;;;2.55;;
49764;SDS011;35657;51.204;-4.130;2023-07-08T15:15:52;12.63;;;2.22;;
49764;SDS011;35657;51.204;-4.130;2023-07-08T15:18:18;9.32;;;1.88;;
49764;SDS011;35657;51.204;-4.130;2023-07-08T15:20:47;9.23;;;2.33;;
49764;SDS011;35657;51.204;-4.130;2023-07-08T15:23:12;13.07;;;3.20;;
49764;SDS011;35657;51.204;-4.130;2023-07-08T15:25:42;11.07;;;2.28;;
49764;SDS011;35657;51.204;-4.130;2023-07-08T15:28:19;10.77;;;2.17;;
49764;SDS011;35657;51.204;-4.130;2023-07-08T15:31:16;11.63;;;2.95;;
49764;SDS011;35657;51.204;-4.130;2023-07-08T15:33:45;17.40;;;2.05;;
49764;SDS011;35657;51.204;-4.130;2023-07-08T15:36:11;7.53;;;2.35;;
49764;SDS011;35657;51.204;-4.130;2023-07-08T15:38:41;14.95;;;3.00;;
49764;SDS011;35657;51.204;-4.130;2023-07-08T15:41:25;9.88;;;3.15;;
49764;SDS011;35657;51.204;-4.130;2023-07-08T15:43:52;8.63;;;1.98;;
49764;SDS011;35657;51.204;-4.130;2023-07-08T15:46:19;7.85;;;1.65;;
49764;SDS011;35657;51.204;-4.130;2023-07-08T15:48:46;9.38;;;1.80;;
49764;SDS011;35657;51.204;-4.130;2023-07-08T15:51:16;10.80;;;2.50;;
49764;SDS011;35657;51.204;-4.130;2023-07-08T15:53:43;12.95;;;2.05;;
49764;SDS011;35657;51.204;-4.130;2023-07-08T15:56:12;11.23;;;1.83;;
49764;SDS011;35657;51.204;-4.130;2023-07-08T15:58:40;11.57;;;2.28;;
49764;SDS011;35657;51.204;-4.130;2023-07-08T16:01:10;12.15;;;2.08;;
49764;SDS011;35657;51.204;-4.130;2023-07-08T16:03:43;10.30;;;2.20;;